sensor_id;sensor_type;location;lat;lon;timestamp;pressure;altitude;pressure_sealevel;temperature;humidity
58072;BME280;60383;46.626;18.866;2023-01-26T00:01:42;101233.84;;;2.27;94.88
58072;BME280;60383;46.626;18.866;2023-01-26T00:04:09;101234.28;;;2.19;93.78
58072;BME280;60383;46.626;18.866;2023-01-26T00:06:34;101229.88;;;2.16;94.49
58072;BME280;60383;46.626;18.866;2023-01-26T00:09:00;101229.22;;;2.13;94.94
58072;BME280;60383;46.626;18.866;2023-01-26T00:11:27;101228.16;;;2.15;94.47
58072;BME280;60383;46.626;18.866;2023-01-26T00:13:57;101221.63;;;2.19;95.17
58072;BME280;60383;46.626;18.866;2023-01-26T00:16:24;101226.31;;;2.16;94.77
58072;BME280;60383;46.626;18.866;2023-01-26T00:18:50;101217.00;;;2.21;93.75
58072;BME280;60383;46.626;18.866;2023-01-26T00:21:18;101218.09;;;2.35;94.03
58072;BME280;60383;46.626;18.866;2023-01-26T00:23:45;101223.28;;;2.22;93.43
58072;BME280;60383;46.626;18.866;2023-01-26T00:26:16;101217.06;;;2.20;94.49
58072;BME280;60383;46.626;18.866;2023-01-26T00:28:42;101218.41;;;2.13;94.47
58072;BME280;60383;46.626;18.866;2023-01-26T00:31:12;101212.31;;;2.25;94.29
58072;BME280;60383;46.626;18.866;2023-01-26T00:33:38;101210.09;;;2.16;94.35
58072;BME280;60383;46.626;18.866;2023-01-26T00:36:04;101222.28;;;2.07;94.79
58072;BME280;60383;46.626;18.866;2023-01-26T00:38:30;101204.25;;;2.07;94.83
58072;BME280;60383;46.626;18.866;2023-01-26T00:40:55;101204.22;;;2.25;93.70
58072;BME280;60383;46.626;18.866;2023-01-26T00:43:21;101211.50;;;2.23;94.08
58072;BME280;60383;46.626;18.866;2023-01-26T00:45:46;101211.03;;;1.99;94.92
58072;BME280;60383;46.626;18.866;2023-01-26T00:48:11;101207.50;;;2.14;94.88
58072;BME280;60383;46.626;18.866;2023-01-26T00:50:37;101199.72;;;2.08;95.00
58072;BME280;60383;46.626;18.866;2023-01-26T00:53:02;101188.66;;;2.13;95.21
58072;BME280;60383;46.626;18.866;2023-01-26T00:55:28;101190.22;;;2.17;95.04
58072;BME280;60383;46.626;18.866;2023-01-26T00:58:00;101178.94;;;2.26;95.35
58072;BME280;60383;46.626;18.866;2023-01-26T01:00:26;101185.78;;;2.16;95.28
58072;BME280;60383;46.626;18.866;2023-01-26T01:02:52;101188.69;;;2.29;95.01
58072;BME280;60383;46.626;18.866;2023-01-26T01:05:21;101191.16;;;2.33;94.12
58072;BME280;60383;46.626;18.866;2023-01-26T01:07:46;101185.88;;;2.14;94.94
58072;BME280;60383;46.626;18.866;2023-01-26T01:10:12;101183.50;;;2.08;95.47
58072;BME280;60383;46.626;18.866;2023-01-26T01:12:37;101178.22;;;2.22;95.48
58072;BME280;60383;46.626;18.866;2023-01-26T01:15:03;101182.97;;;2.17;95.55
58072;BME280;60383;46.626;18.866;2023-01-26T01:17:29;101175.53;;;2.22;95.22
58072;BME280;60383;46.626;18.866;2023-01-26T01:19:54;101169.88;;;2.43;94.66
58072;BME280;60383;46.626;18.866;2023-01-26T01:22:20;101166.25;;;2.27;94.83
58072;BME280;60383;46.626;18.866;2023-01-26T01:24:45;101169.19;;;2.06;95.74
58072;BME280;60383;46.626;18.866;2023-01-26T01:27:10;101166.53;;;2.22;95.55
58072;BME280;60383;46.626;18.866;2023-01-26T01:29:36;101168.41;;;2.20;95.48
58072;BME280;60383;46.626;18.866;2023-01-26T01:32:02;101165.91;;;2.33;94.58
58072;BME280;60383;46.626;18.866;2023-01-26T01:34:27;101166.13;;;2.46;94.60
58072;BME280;60383;46.626;18.866;2023-01-26T01:36:53;101167.22;;;2.10;95.45
58072;BME280;60383;46.626;18.866;2023-01-26T01:39:18;101166.34;;;2.09;96.15
58072;BME280;60383;46.626;18.866;2023-01-26T01:41:44;101163.78;;;2.06;96.50
58072;BME280;60383;46.626;18.866;2023-01-26T01:46:36;101160.69;;;2.30;94.63
58072;BME280;60383;46.626;18.866;2023-01-26T01:49:06;101162.97;;;2.37;93.91
58072;BME280;60383;46.626;18.866;2023-01-26T01:51:40;101156.75;;;2.19;93.63
58072;BME280;60383;46.626;18.866;2023-01-26T01:54:11;101162.16;;;2.19;93.15
58072;BME280;60383;46.626;18.866;2023-01-26T01:56:42;101159.94;;;1.94;93.76
58072;BME280;60383;46.626;18.866;2023-01-26T01:59:10;101158.75;;;1.82;94.58
58072;BME280;60383;46.626;18.866;2023-01-26T02:01:36;101150.25;;;1.90;94.26
58072;BME280;60383;46.626;18.866;2023-01-26T02:04:04;101149.69;;;2.17;93.48
58072;BME280;60383;46.626;18.866;2023-01-26T02:06:50;101150.06;;;1.93;94.06
58072;BME280;60383;46.626;18.866;2023-01-26T02:09:20;101144.28;;;2.17;93.90
58072;BME280;60383;46.626;18.866;2023-01-26T02:12:07;101136.22;;;1.99;94.57
58072;BME280;60383;46.626;18.866;2023-01-26T02:14:35;101140.69;;;2.00;94.72
58072;BME280;60383;46.626;18.866;2023-01-26T02:17:01;101136.06;;;1.86;95.71
58072;BME280;60383;46.626;18.866;2023-01-26T02:20:07;101135.38;;;1.99;95.98
58072;BME280;60383;46.626;18.866;2023-01-26T02:24:58;101133.09;;;1.57;98.83
58072;BME280;60383;46.626;18.866;2023-01-26T02:27:28;101125.59;;;1.80;98.18
58072;BME280;60383;46.626;18.866;2023-01-26T02:29:55;101127.50;;;1.78;98.13
58072;BME280;60383;46.626;18.866;2023-01-26T02:32:21;101125.16;;;1.88;98.34
58072;BME280;60383;46.626;18.866;2023-01-26T02:34:46;101124.69;;;1.80;98.08
58072;BME280;60383;46.626;18.866;2023-01-26T02:37:13;101113.63;;;1.84;98.76
58072;BME280;60383;46.626;18.866;2023-01-26T02:39:49;101119.50;;;1.92;98.81
58072;BME280;60383;46.626;18.866;2023-01-26T02:42:17;101112.09;;;1.96;99.10
58072;BME280;60383;46.626;18.866;2023-01-26T02:45:02;101108.19;;;2.02;99.07
58072;BME280;60383;46.626;18.866;2023-01-26T02:47:27;101091.69;;;2.06;98.55
58072;BME280;60383;46.626;18.866;2023-01-26T02:49:52;101097.09;;;2.06;97.91
58072;BME280;60383;46.626;18.866;2023-01-26T02:52:21;101094.25;;;2.10;97.99
58072;BME280;60383;46.626;18.866;2023-01-26T02:54:47;101092.13;;;1.99;98.69
58072;BME280;60383;46.626;18.866;2023-01-26T02:57:31;101092.75;;;2.04;97.94
58072;BME280;60383;46.626;18.866;2023-01-26T02:59:59;101085.69;;;2.01;97.77
58072;BME280;60383;46.626;18.866;2023-01-26T03:02:25;101082.38;;;2.12;97.48
58072;BME280;60383;46.626;18.866;2023-01-26T03:04:50;101066.34;;;2.25;97.18
58072;BME280;60383;46.626;18.866;2023-01-26T03:07:15;101070.00;;;2.24;96.90
58072;BME280;60383;46.626;18.866;2023-01-26T03:09:41;101067.56;;;2.19;97.47
58072;BME280;60383;46.626;18.866;2023-01-26T03:12:06;101063.81;;;2.22;97.06
58072;BME280;60383;46.626;18.866;2023-01-26T03:14:32;101059.81;;;2.13;97.39
58072;BME280;60383;46.626;18.866;2023-01-26T03:16:57;101057.00;;;2.15;97.63
58072;BME280;60383;46.626;18.866;2023-01-26T03:19:23;101053.94;;;2.21;97.73
58072;BME280;60383;46.626;18.866;2023-01-26T03:22:08;101052.56;;;2.14;97.66
58072;BME280;60383;46.626;18.866;2023-01-26T03:24:53;101050.66;;;2.16;97.61
58072;BME280;60383;46.626;18.866;2023-01-26T03:27:43;101047.16;;;2.14;97.85
58072;BME280;60383;46.626;18.866;2023-01-26T03:30:10;101038.44;;;1.92;97.94
58072;BME280;60383;46.626;18.866;2023-01-26T03:32:36;101045.25;;;2.00;98.60
58072;BME280;60383;46.626;18.866;2023-01-26T03:35:02;101036.34;;;1.82;98.94
58072;BME280;60383;46.626;18.866;2023-01-26T03:37:27;101037.50;;;1.94;99.46
58072;BME280;60383;46.626;18.866;2023-01-26T03:39:59;101038.72;;;1.88;99.22
58072;BME280;60383;46.626;18.866;2023-01-26T03:42:42;101035.84;;;2.07;98.92
58072;BME280;60383;46.626;18.866;2023-01-26T03:45:26;101036.19;;;2.01;98.88
58072;BME280;60383;46.626;18.866;2023-01-26T03:48:11;101030.09;;;1.97;98.33
58072;BME280;60383;46.626;18.866;2023-01-26T03:50:56;101023.81;;;1.81;99.28
58072;BME280;60383;46.626;18.866;2023-01-26T03:53:40;101026.22;;;1.53;100.00
58072;BME280;60383;46.626;18.866;2023-01-26T03:56:25;101025.00;;;1.59;100.00
58072;BME280;60383;46.626;18.866;2023-01-26T03:59:00;101019.34;;;1.80;100.00
58072;BME280;60383;46.626;18.866;2023-01-26T04:01:41;101023.69;;;1.66;100.00
58072;BME280;60383;46.626;18.866;2023-01-26T04:04:27;101016.59;;;1.81;100.00
58072;BME280;60383;46.626;18.866;2023-01-26T04:07:11;101020.00;;;1.85;100.00
58072;BME280;60383;46.626;18.866;2023-01-26T04:09:55;101012.28;;;1.61;100.00
58072;BME280;60383;46.626;18.866;2023-01-26T04:12:20;101008.47;;;1.81;100.00
58072;BME280;60383;46.626;18.866;2023-01-26T04:14:46;101004.03;;;1.80;100.00
58072;BME280;60383;46.626;18.866;2023-01-26T04:17:30;101004.97;;;1.63;100.00
58072;BME280;60383;46.626;18.866;2023-01-26T04:20:14;101007.22;;;1.55;100.00
58072;BME280;60383;46.626;18.866;2023-01-26T04:22:58;101005.22;;;1.42;100.00
58072;BME280;60383;46.626;18.866;2023-01-26T04:25:24;100998.78;;;1.61;100.00
58072;BME280;60383;46.626;18.866;2023-01-26T04:27:49;100993.38;;;1.77;100.00
58072;BME280;60383;46.626;18.866;2023-01-26T04:30:16;101005.09;;;1.78;100.00
58072;BME280;60383;46.626;18.866;2023-01-26T04:32:41;101002.63;;;1.57;100.00
58072;BME280;60383;46.626;18.866;2023-01-26T04:35:08;101002.63;;;1.73;100.00
58072;BME280;60383;46.626;18.866;2023-01-26T04:37:34;101000.03;;;1.71;100.00
58072;BME280;60383;46.626;18.866;2023-01-26T04:40:00;100997.31;;;1.87;100.00
58072;BME280;60383;46.626;18.866;2023-01-26T04:42:26;100994.28;;;1.94;99.63
58072;BME280;60383;46.626;18.866;2023-01-26T04:44:52;100995.22;;;1.92;99.33
58072;BME280;60383;46.626;18.866;2023-01-26T04:47:18;100991.72;;;1.90;99.36
58072;BME280;60383;46.626;18.866;2023-01-26T04:49:44;100990.44;;;1.82;99.90
58072;BME280;60383;46.626;18.866;2023-01-26T04:52:10;100989.28;;;1.86;99.78
58072;BME280;60383;46.626;18.866;2023-01-26T04:54:35;100995.59;;;1.70;99.88
58072;BME280;60383;46.626;18.866;2023-01-26T04:57:00;100995.66;;;1.69;99.85
58072;BME280;60383;46.626;18.866;2023-01-26T04:59:26;101004.69;;;1.52;100.00
58072;BME280;60383;46.626;18.866;2023-01-26T05:01:52;101001.72;;;1.40;100.00
58072;BME280;60383;46.626;18.866;2023-01-26T05:04:17;101000.97;;;1.54;100.00
58072;BME280;60383;46.626;18.866;2023-01-26T05:06:43;100997.28;;;1.55;100.00
58072;BME280;60383;46.626;18.866;2023-01-26T05:09:08;100995.50;;;1.72;100.00
58072;BME280;60383;46.626;18.866;2023-01-26T05:11:34;100998.53;;;1.66;100.00
58072;BME280;60383;46.626;18.866;2023-01-26T05:13:59;101004.78;;;1.50;100.00
58072;BME280;60383;46.626;18.866;2023-01-26T05:16:25;100997.03;;;1.44;100.00
58072;BME280;60383;46.626;18.866;2023-01-26T05:18:52;100995.81;;;1.50;100.00
58072;BME280;60383;46.626;18.866;2023-01-26T05:21:17;100985.53;;;1.56;100.00
58072;BME280;60383;46.626;18.866;2023-01-26T05:23:43;100981.78;;;1.59;100.00
58072;BME280;60383;46.626;18.866;2023-01-26T05:26:08;100990.53;;;1.64;100.00
58072;BME280;60383;46.626;18.866;2023-01-26T05:28:34;100983.19;;;1.66;100.00
58072;BME280;60383;46.626;18.866;2023-01-26T05:31:00;100985.63;;;1.39;100.00
58072;BME280;60383;46.626;18.866;2023-01-26T05:33:25;100990.66;;;1.29;100.00
58072;BME280;60383;46.626;18.866;2023-01-26T05:35:51;100981.97;;;1.56;100.00
58072;BME280;60383;46.626;18.866;2023-01-26T05:38:17;100984.44;;;1.61;100.00
58072;BME280;60383;46.626;18.866;2023-01-26T05:40:43;100978.41;;;1.87;100.00
58072;BME280;60383;46.626;18.866;2023-01-26T05:43:10;100980.06;;;1.74;100.00
58072;BME280;60383;46.626;18.866;2023-01-26T05:45:37;100986.00;;;1.65;100.00
58072;BME280;60383;46.626;18.866;2023-01-26T05:48:03;100979.13;;;1.75;100.00
58072;BME280;60383;46.626;18.866;2023-01-26T05:50:28;100985.03;;;1.66;100.00
58072;BME280;60383;46.626;18.866;2023-01-26T05:52:54;100978.78;;;1.81;100.00
58072;BME280;60383;46.626;18.866;2023-01-26T05:55:19;100987.81;;;1.96;100.00
58072;BME280;60383;46.626;18.866;2023-01-26T05:57:45;100987.22;;;1.91;100.00
58072;BME280;60383;46.626;18.866;2023-01-26T06:00:11;100985.03;;;1.98;100.00
58072;BME280;60383;46.626;18.866;2023-01-26T06:02:37;100984.34;;;1.78;100.00
58072;BME280;60383;46.626;18.866;2023-01-26T06:05:03;100996.78;;;1.65;100.00
58072;BME280;60383;46.626;18.866;2023-01-26T06:07:29;100992.63;;;1.75;100.00
58072;BME280;60383;46.626;18.866;2023-01-26T06:09:55;100988.00;;;1.77;100.00
58072;BME280;60383;46.626;18.866;2023-01-26T06:12:21;100989.41;;;1.35;100.00
58072;BME280;60383;46.626;18.866;2023-01-26T06:14:47;100992.66;;;1.25;100.00
58072;BME280;60383;46.626;18.866;2023-01-26T06:17:13;100992.00;;;1.54;100.00
58072;BME280;60383;46.626;18.866;2023-01-26T06:19:38;100996.78;;;1.65;99.99
58072;BME280;60383;46.626;18.866;2023-01-26T06:22:08;100999.16;;;1.21;100.00
58072;BME280;60383;46.626;18.866;2023-01-26T06:24:34;100997.53;;;1.35;100.00
58072;BME280;60383;46.626;18.866;2023-01-26T06:27:00;101000.59;;;1.44;100.00
58072;BME280;60383;46.626;18.866;2023-01-26T06:29:26;100995.00;;;1.32;100.00
58072;BME280;60383;46.626;18.866;2023-01-26T06:31:51;100992.53;;;1.61;100.00
58072;BME280;60383;46.626;18.866;2023-01-26T06:34:18;100991.22;;;1.18;100.00
58072;BME280;60383;46.626;18.866;2023-01-26T06:36:44;100990.09;;;1.22;100.00
58072;BME280;60383;46.626;18.866;2023-01-26T06:39:10;101000.31;;;1.33;100.00
58072;BME280;60383;46.626;18.866;2023-01-26T06:41:36;100999.63;;;1.46;100.00
58072;BME280;60383;46.626;18.866;2023-01-26T06:44:02;101003.03;;;1.49;100.00
58072;BME280;60383;46.626;18.866;2023-01-26T06:46:27;101002.34;;;1.62;100.00
58072;BME280;60383;46.626;18.866;2023-01-26T06:48:53;101005.06;;;1.12;100.00
58072;BME280;60383;46.626;18.866;2023-01-26T06:53:57;101004.50;;;1.39;100.00
58072;BME280;60383;46.626;18.866;2023-01-26T06:56:23;101000.53;;;1.46;100.00
58072;BME280;60383;46.626;18.866;2023-01-26T06:58:49;100998.56;;;1.32;100.00
58072;BME280;60383;46.626;18.866;2023-01-26T07:01:16;100990.44;;;1.66;99.91
58072;BME280;60383;46.626;18.866;2023-01-26T07:03:42;100998.53;;;1.50;98.90
58072;BME280;60383;46.626;18.866;2023-01-26T07:06:07;100993.78;;;1.37;100.00
58072;BME280;60383;46.626;18.866;2023-01-26T07:08:36;100998.06;;;1.08;100.00
58072;BME280;60383;46.626;18.866;2023-01-26T07:11:01;100993.69;;;1.23;100.00
58072;BME280;60383;46.626;18.866;2023-01-26T07:13:27;100997.03;;;1.10;100.00
58072;BME280;60383;46.626;18.866;2023-01-26T07:16:00;101001.59;;;1.26;100.00
58072;BME280;60383;46.626;18.866;2023-01-26T07:18:25;101001.56;;;1.10;100.00
58072;BME280;60383;46.626;18.866;2023-01-26T07:20:51;100992.31;;;1.32;100.00
58072;BME280;60383;46.626;18.866;2023-01-26T07:23:16;100989.88;;;1.43;100.00
58072;BME280;60383;46.626;18.866;2023-01-26T07:25:42;100993.38;;;1.45;100.00
58072;BME280;60383;46.626;18.866;2023-01-26T07:28:08;100979.72;;;1.64;100.00
58072;BME280;60383;46.626;18.866;2023-01-26T07:30:35;100981.28;;;1.84;98.61
58072;BME280;60383;46.626;18.866;2023-01-26T07:33:00;100991.19;;;1.52;99.02
58072;BME280;60383;46.626;18.866;2023-01-26T07:35:26;100989.19;;;1.55;99.82
58072;BME280;60383;46.626;18.866;2023-01-26T07:37:54;100990.78;;;1.59;99.64
58072;BME280;60383;46.626;18.866;2023-01-26T07:40:19;100989.38;;;1.36;100.00
58072;BME280;60383;46.626;18.866;2023-01-26T07:42:45;100989.25;;;1.22;100.00
58072;BME280;60383;46.626;18.866;2023-01-26T07:45:10;100986.78;;;1.51;100.00
58072;BME280;60383;46.626;18.866;2023-01-26T07:47:36;100991.53;;;1.62;99.21
58072;BME280;60383;46.626;18.866;2023-01-26T07:50:02;100985.88;;;1.66;99.61
58072;BME280;60383;46.626;18.866;2023-01-26T07:52:28;100985.03;;;1.82;99.09
58072;BME280;60383;46.626;18.866;2023-01-26T07:54:53;100983.38;;;1.63;98.97
58072;BME280;60383;46.626;18.866;2023-01-26T07:57:19;100985.72;;;1.69;98.31
58072;BME280;60383;46.626;18.866;2023-01-26T07:59:44;100988.59;;;1.66;98.46
58072;BME280;60383;46.626;18.866;2023-01-26T08:02:10;100976.22;;;1.62;98.05
58072;BME280;60383;46.626;18.866;2023-01-26T08:04:35;100984.84;;;1.69;98.00
58072;BME280;60383;46.626;18.866;2023-01-26T08:07:00;100989.03;;;1.74;97.85
58072;BME280;60383;46.626;18.866;2023-01-26T08:09:26;100981.97;;;1.72;97.49
58072;BME280;60383;46.626;18.866;2023-01-26T08:11:51;100985.38;;;1.75;96.93
58072;BME280;60383;46.626;18.866;2023-01-26T08:14:17;100984.00;;;1.68;97.06
58072;BME280;60383;46.626;18.866;2023-01-26T08:16:42;100982.69;;;1.75;97.12
58072;BME280;60383;46.626;18.866;2023-01-26T08:19:09;100983.13;;;1.68;97.70
58072;BME280;60383;46.626;18.866;2023-01-26T08:21:34;100972.03;;;1.56;98.12
58072;BME280;60383;46.626;18.866;2023-01-26T08:24:00;100974.59;;;1.59;98.40
58072;BME280;60383;46.626;18.866;2023-01-26T08:26:27;100975.44;;;1.60;98.76
58072;BME280;60383;46.626;18.866;2023-01-26T08:28:53;100972.22;;;1.69;98.16
58072;BME280;60383;46.626;18.866;2023-01-26T08:31:19;100973.38;;;1.81;97.34
58072;BME280;60383;46.626;18.866;2023-01-26T08:33:50;100975.88;;;1.68;97.45
58072;BME280;60383;46.626;18.866;2023-01-26T08:36:16;100976.13;;;1.80;96.25
58072;BME280;60383;46.626;18.866;2023-01-26T08:38:43;100970.47;;;1.84;96.45
58072;BME280;60383;46.626;18.866;2023-01-26T08:41:09;100973.53;;;1.94;96.10
58072;BME280;60383;46.626;18.866;2023-01-26T08:43:35;100980.41;;;2.00;96.13
58072;BME280;60383;46.626;18.866;2023-01-26T08:46:01;100975.88;;;1.84;96.11
58072;BME280;60383;46.626;18.866;2023-01-26T08:48:27;100973.44;;;1.64;98.12
58072;BME280;60383;46.626;18.866;2023-01-26T08:51:00;100969.44;;;1.87;97.80
58072;BME280;60383;46.626;18.866;2023-01-26T08:53:25;100969.97;;;1.78;98.78
58072;BME280;60383;46.626;18.866;2023-01-26T08:55:51;100965.78;;;1.88;97.34
58072;BME280;60383;46.626;18.866;2023-01-26T08:58:17;100961.59;;;1.82;97.65
58072;BME280;60383;46.626;18.866;2023-01-26T09:00:44;100966.03;;;1.51;97.26
58072;BME280;60383;46.626;18.866;2023-01-26T09:03:10;100962.22;;;1.71;98.02
58072;BME280;60383;46.626;18.866;2023-01-26T09:05:38;100968.03;;;1.80;98.05
58072;BME280;60383;46.626;18.866;2023-01-26T09:08:04;100962.63;;;1.80;95.80
58072;BME280;60383;46.626;18.866;2023-01-26T09:10:31;100975.19;;;1.81;95.74
58072;BME280;60383;46.626;18.866;2023-01-26T09:12:58;100965.06;;;1.84;95.24
58072;BME280;60383;46.626;18.866;2023-01-26T09:15:24;100961.84;;;1.94;95.73
58072;BME280;60383;46.626;18.866;2023-01-26T09:17:50;100962.09;;;2.05;95.04
58072;BME280;60383;46.626;18.866;2023-01-26T09:20:16;100964.69;;;2.06;94.76
58072;BME280;60383;46.626;18.866;2023-01-26T09:22:41;100959.28;;;2.06;95.01
58072;BME280;60383;46.626;18.866;2023-01-26T09:25:07;100954.50;;;2.12;95.09
58072;BME280;60383;46.626;18.866;2023-01-26T09:27:33;100954.88;;;2.05;92.79
58072;BME280;60383;46.626;18.866;2023-01-26T09:29:59;100956.59;;;2.06;92.85
58072;BME280;60383;46.626;18.866;2023-01-26T09:32:25;100952.66;;;2.12;91.81
58072;BME280;60383;46.626;18.866;2023-01-26T09:34:50;100948.84;;;2.00;91.57
58072;BME280;60383;46.626;18.866;2023-01-26T09:37:16;100942.28;;;2.20;88.62
58072;BME280;60383;46.626;18.866;2023-01-26T09:39:42;100944.56;;;2.12;88.78
58072;BME280;60383;46.626;18.866;2023-01-26T09:48:06;100933.84;;;2.11;87.06
58072;BME280;60383;46.626;18.866;2023-01-26T09:50:50;100935.16;;;2.03;88.68
58072;BME280;60383;46.626;18.866;2023-01-26T09:56:03;100923.44;;;1.88;89.71
58072;BME280;60383;46.626;18.866;2023-01-26T09:58:36;100920.03;;;1.85;88.35
58072;BME280;60383;46.626;18.866;2023-01-26T10:01:03;100919.22;;;1.99;88.24
58072;BME280;60383;46.626;18.866;2023-01-26T10:06:28;100906.72;;;2.12;87.57
58072;BME280;60383;46.626;18.866;2023-01-26T10:09:03;100909.09;;;2.33;87.00
58072;BME280;60383;46.626;18.866;2023-01-26T10:11:41;100906.47;;;2.17;86.64
58072;BME280;60383;46.626;18.866;2023-01-26T10:14:14;100900.50;;;2.26;86.23
58072;BME280;60383;46.626;18.866;2023-01-26T10:16:45;100904.38;;;2.06;85.90
58072;BME280;60383;46.626;18.866;2023-01-26T10:19:51;100898.56;;;2.28;86.52
58072;BME280;60383;46.626;18.866;2023-01-26T10:22:31;100891.56;;;2.10;85.33
58072;BME280;60383;46.626;18.866;2023-01-26T10:25:00;100891.03;;;2.19;85.64
58072;BME280;60383;46.626;18.866;2023-01-26T10:27:27;100891.03;;;2.19;84.88
58072;BME280;60383;46.626;18.866;2023-01-26T10:29:53;100891.34;;;1.98;83.77
58072;BME280;60383;46.626;18.866;2023-01-26T10:32:19;100891.72;;;1.92;83.81
58072;BME280;60383;46.626;18.866;2023-01-26T10:34:47;100888.00;;;2.09;83.58
58072;BME280;60383;46.626;18.866;2023-01-26T10:37:20;100892.84;;;2.18;81.78
58072;BME280;60383;46.626;18.866;2023-01-26T10:40:00;100886.84;;;2.13;81.15
58072;BME280;60383;46.626;18.866;2023-01-26T10:42:28;100878.53;;;2.02;81.00
58072;BME280;60383;46.626;18.866;2023-01-26T10:44:54;100878.00;;;1.95;81.67
58072;BME280;60383;46.626;18.866;2023-01-26T10:47:20;100883.19;;;1.84;82.09
58072;BME280;60383;46.626;18.866;2023-01-26T10:49:46;100875.47;;;2.08;82.07
58072;BME280;60383;46.626;18.866;2023-01-26T10:52:21;100876.78;;;2.01;81.63
58072;BME280;60383;46.626;18.866;2023-01-26T10:55:11;100868.69;;;2.01;81.72
58072;BME280;60383;46.626;18.866;2023-01-26T10:57:37;100871.19;;;2.04;81.96
58072;BME280;60383;46.626;18.866;2023-01-26T11:00:05;100860.03;;;2.24;82.57
58072;BME280;60383;46.626;18.866;2023-01-26T11:02:34;100857.41;;;2.08;81.91
58072;BME280;60383;46.626;18.866;2023-01-26T11:07:32;100859.28;;;2.22;81.08
58072;BME280;60383;46.626;18.866;2023-01-26T11:12:40;100853.38;;;2.16;81.79
58072;BME280;60383;46.626;18.866;2023-01-26T11:15:15;100850.88;;;1.97;82.34
58072;BME280;60383;46.626;18.866;2023-01-26T11:24:18;100841.34;;;1.91;83.91
58072;BME280;60383;46.626;18.866;2023-01-26T11:32:29;100826.06;;;2.20;83.89
58072;BME280;60383;46.626;18.866;2023-01-26T11:59:34;100777.59;;;2.32;83.88
58072;BME280;60383;46.626;18.866;2023-01-26T12:02:23;100773.00;;;2.34;84.16
58072;BME280;60383;46.626;18.866;2023-01-26T12:04:51;100771.13;;;2.49;83.19
58072;BME280;60383;46.626;18.866;2023-01-26T12:07:47;100756.78;;;2.34;84.59
58072;BME280;60383;46.626;18.866;2023-01-26T12:10:23;100751.66;;;2.29;84.22
58072;BME280;60383;46.626;18.866;2023-01-26T12:13:03;100758.38;;;2.07;82.92
58072;BME280;60383;46.626;18.866;2023-01-26T12:15:37;100759.84;;;2.13;82.56
58072;BME280;60383;46.626;18.866;2023-01-26T12:18:11;100743.91;;;2.23;80.09
58072;BME280;60383;46.626;18.866;2023-01-26T12:20:45;100750.78;;;2.14;79.01
58072;BME280;60383;46.626;18.866;2023-01-26T12:25:58;100757.94;;;2.15;80.58
58072;BME280;60383;46.626;18.866;2023-01-26T12:31:01;100741.13;;;2.24;82.75
58072;BME280;60383;46.626;18.866;2023-01-26T12:33:30;100742.19;;;2.36;83.40
58072;BME280;60383;46.626;18.866;2023-01-26T12:41:16;100735.41;;;2.15;82.10
58072;BME280;60383;46.626;18.866;2023-01-26T12:46:09;100730.91;;;2.30;83.46
58072;BME280;60383;46.626;18.866;2023-01-26T12:51:13;100719.69;;;2.07;82.55
58072;BME280;60383;46.626;18.866;2023-01-26T12:53:52;100721.72;;;2.03;83.04
58072;BME280;60383;46.626;18.866;2023-01-26T12:56:31;100719.47;;;2.10;81.96
58072;BME280;60383;46.626;18.866;2023-01-26T12:59:05;100727.81;;;2.07;81.65
58072;BME280;60383;46.626;18.866;2023-01-26T13:01:40;100718.91;;;2.05;81.55
58072;BME280;60383;46.626;18.866;2023-01-26T13:04:14;100726.16;;;2.19;79.39
58072;BME280;60383;46.626;18.866;2023-01-26T13:06:41;100726.34;;;2.30;78.11
58072;BME280;60383;46.626;18.866;2023-01-26T13:09:21;100722.59;;;2.33;75.68
58072;BME280;60383;46.626;18.866;2023-01-26T13:11:57;100725.38;;;2.46;74.26
58072;BME280;60383;46.626;18.866;2023-01-26T13:22:37;100707.44;;;2.30;74.53
58072;BME280;60383;46.626;18.866;2023-01-26T13:25:32;100707.44;;;2.30;73.59
58072;BME280;60383;46.626;18.866;2023-01-26T13:28:02;100715.53;;;2.45;72.87
58072;BME280;60383;46.626;18.866;2023-01-26T13:30:38;100716.88;;;2.52;73.36
58072;BME280;60383;46.626;18.866;2023-01-26T13:33:16;100711.75;;;2.47;74.21
58072;BME280;60383;46.626;18.866;2023-01-26T13:35:44;100705.97;;;2.39;75.73
58072;BME280;60383;46.626;18.866;2023-01-26T13:40:52;100702.19;;;2.56;77.62
58072;BME280;60383;46.626;18.866;2023-01-26T13:43:42;100715.91;;;2.53;78.63
58072;BME280;60383;46.626;18.866;2023-01-26T13:48:57;100695.78;;;2.15;80.45
58072;BME280;60383;46.626;18.866;2023-01-26T13:51:25;100702.41;;;2.24;81.09
58072;BME280;60383;46.626;18.866;2023-01-26T13:54:11;100696.72;;;2.29;80.07
58072;BME280;60383;46.626;18.866;2023-01-26T13:56:39;100701.13;;;2.44;80.03
58072;BME280;60383;46.626;18.866;2023-01-26T13:59:10;100699.97;;;2.63;78.81
58072;BME280;60383;46.626;18.866;2023-01-26T14:04:12;100690.13;;;2.62;80.00
58072;BME280;60383;46.626;18.866;2023-01-26T14:06:38;100680.00;;;2.36;80.71
58072;BME280;60383;46.626;18.866;2023-01-26T14:09:10;100683.00;;;2.17;81.59
58072;BME280;60383;46.626;18.866;2023-01-26T14:11:36;100681.88;;;2.21;82.41
58072;BME280;60383;46.626;18.866;2023-01-26T14:14:02;100676.13;;;2.40;82.43
58072;BME280;60383;46.626;18.866;2023-01-26T14:16:35;100683.59;;;2.22;82.33
58072;BME280;60383;46.626;18.866;2023-01-26T14:19:11;100672.84;;;2.50;80.68
58072;BME280;60383;46.626;18.866;2023-01-26T14:21:54;100671.63;;;2.12;83.15
58072;BME280;60383;46.626;18.866;2023-01-26T14:24:36;100663.25;;;2.02;84.16
58072;BME280;60383;46.626;18.866;2023-01-26T14:27:29;100661.59;;;1.85;84.92
58072;BME280;60383;46.626;18.866;2023-01-26T14:29:56;100670.47;;;1.73;84.76
58072;BME280;60383;46.626;18.866;2023-01-26T14:32:21;100661.69;;;1.84;85.13